المنامة, البحرين

05:43 AM AST on أمتèبر 25, 2014 (GMT +0300)
Bahrain International | Change Station
CLOSE
Current Station
Airport
Location: Manama,
Elevation: 7 ft
Nearby Weather Stations

Elev 7 ft 26.27 °N, 50.63 °E | Updated 43 minutes ago

Clear
صافية
79 °F
Feels Like 79 °F
N
6
ريح متغير ريح from غرب

هذا اليوم
High -- | Low -- °F
--% Chance of Precip.
Yesterday
High -- | Low -- °F
Precip. -- في
5:41 AM 5:00 PM
قمر جدید, 2% visible
الضغط 29.86 في
وضوح الرؤية -9999.0 أميال
سحابات
نقطة الندى 68 °F
الرطوبة 69%
Rainfall 0.00 في
عمق الثلج Not available.
الأشعة فوق البنفسجية Not available.
Pollen Not available.
جودة الهواء Not available.
Flu Activity Not available.
METAR OBBI 250200Z 28005KT CAVOK 26/20 Q1011 NOSIG

More Conditions Fewer Conditions

الضغط 29.86 في
وضوح الرؤية -9999.0 أميال
سحابات
نقطة الندى 68 °F
الرطوبة 69%
Rainfall 0.00 في
عمق الثلج Not available.
الأشعة فوق البنفسجية Not available.
Pollen Not available.
جودة الهواء Not available.
Flu Activity Not available.
METAR OBBI 250200Z 28005KT CAVOK 26/20 Q1011 NOSIG

More Conditions Fewer Conditions

10-Day Weather Forecast

Almanac

علم الفلك

Oct. 25, 2014 Rise Set
Actual Time 5:41 AM AST 5:00 PM AST
Civil Twilight 5:18 AM AST 5:24 PM AST
Nautical Twilight 4:51 AM AST 5:51 PM AST
Astronomical Twilight 4:24 AM AST 6:18 PM AST
قمر 6:52 AM AST 6:13 PM AST
Length Of Visible Light 12h 06m
طول الیوم
11h 18m
Tomorrow will be 1m 25s shorter.
قمر جدید, 2% of the Moon is Illuminated
Oct 24
قمر جدید
Oct 30
الربع الاول
Nov 6
بدر
Nov 14
الربع الآخر
Nov 22
New

Yesterday's Extremes

Country Highs Country Lows

Community

WunderPhotos

Upload Photos

1,764,760 photos uploaded!

WunderBlogs® & News

Nearby

جودة الهواء

Not available.

عمق الثلج

Not available.

Earthquake Activity

City Distance Mag. Time & Date
No recent earthquake activity has been reported nearby.
Minimum magnitude displayed is 2.5.

Coastal Water Temperatures

مكان درجات الحرارة
No Stations Reporting

Nearby Weather Stations